Nelson Lagoon, Alaska
Current Conditions -  °F | °C
As of 12:15 PM on Saturday 20 Dec 2014 (Local Time) from PAOU Reporting Station
Haze Haze  
Wind Chill: 30°   Ceiling: 400
Heat Index: 30°   Visibility: 1.5mi
Dew Point: 30°   Wind: 0mph
Humidity: 100%   Direction: NA
Pressure: 28.85"   Gusts: NA
Location:  56°N, 161.2°W
Report Text: PAOU 202015Z AUTO 00000KT 1 1/2SM BR OVC004 M01/M01 A2885 RMK AO2 TSNO $
Loading
Personal Weather Stations






























Interactive Weather Map New forecast layout! Learn more

10-Day Weather Forecast

Advertisements
Track Severe Weather on mobile